Westhampton, Virginia
Current Conditions -  °F | °C
As of 6:54 PM on Friday 21 Nov 2014 (Local Time) from KOFP Reporting Station
Clear Clear  
Wind Chill: 27°   Ceiling: Unl
Heat Index: 27°   Visibility: 10mi
Dew Point: 13°   Wind: 0mph
Humidity: 56%   Direction: NA
Pressure: 30.55"   Gusts: NA
Location:  37.5803°N, 77.5202°W
Report Text: KOFP 212354Z AUTO 00000KT 10SM CLR M03/M11 A3055 RMK AO2 SLP348 T10281106 10050 21028 53019
Loading
Personal Weather Stations






























Interactive Weather Map New forecast layout! Learn more

10-Day Weather Forecast

Advertisements
Track Severe Weather on mobile